createdAt,value
2023-03-07T00:00:10.249Z,24.3
2023-03-07T00:05:46.902Z,24.3
2023-03-07T00:11:24.369Z,24.3
2023-03-07T00:17:02.531Z,24.2
2023-03-07T00:22:39.091Z,24.2
2023-03-07T00:28:32.708Z,24.2
2023-03-07T00:34:10.043Z,24.2
2023-03-07T00:40:01.744Z,24.2
2023-03-07T00:45:39.143Z,24.2
2023-03-07T00:51:16.137Z,24.2
2023-03-07T00:56:52.997Z,24.2
2023-03-07T01:02:14.875Z,24.2
2023-03-07T01:07:52.911Z,24.2
2023-03-07T01:13:29.777Z,24.2
2023-03-07T01:19:07.491Z,24.2
2023-03-07T01:24:44.473Z,24.1
2023-03-07T01:30:21.253Z,24.1
2023-03-07T01:36:14.694Z,24.1
2023-03-07T01:42:08.062Z,24.1
2023-03-07T01:48:00.405Z,24.1
2023-03-07T01:53:21.295Z,24.1
2023-03-07T01:58:43.688Z,24.1
2023-03-07T02:04:36.441Z,24.5
2023-03-07T02:10:27.848Z,25.6
2023-03-07T02:16:05.121Z,26.5
2023-03-07T02:21:57.252Z,27.7
2023-03-07T02:27:34.709Z,28.9
2023-03-07T02:33:27.519Z,30.1
2023-03-07T02:39:04.078Z,31.3
2023-03-07T02:44:56.151Z,32.4
2023-03-07T02:50:32.832Z,33.6
2023-03-07T02:55:55.056Z,34.7
2023-03-07T03:01:47.395Z,35.8
2023-03-07T03:07:10.120Z,36.9
2023-03-07T03:13:02.709Z,38
2023-03-07T03:18:57.000Z,39.2
2023-03-07T03:24:50.087Z,40.4
2023-03-07T03:30:42.894Z,41.6
2023-03-07T03:36:36.053Z,41.9
2023-03-07T03:42:29.216Z,42
2023-03-07T03:48:22.253Z,42
2023-03-07T03:54:14.703Z,42
2023-03-07T04:00:07.132Z,42
2023-03-07T04:05:59.989Z,41.9
2023-03-07T04:11:52.581Z,41.9
2023-03-07T04:17:46.432Z,41.9
2023-03-07T04:23:38.515Z,41.9
2023-03-07T04:29:15.545Z,41.9
2023-03-07T04:34:53.885Z,41.9
2023-03-07T04:40:45.797Z,41.9
2023-03-07T04:46:10.804Z,41.9
2023-03-07T04:51:33.154Z,41.8
2023-03-07T04:57:26.290Z,41.8
2023-03-07T05:02:49.893Z,41.8
2023-03-07T05:08:44.930Z,41.8
2023-03-07T05:14:37.233Z,41.8
2023-03-07T05:20:29.499Z,41.7
2023-03-07T05:26:22.813Z,41.7
2023-03-07T05:32:14.558Z,41.7
2023-03-07T05:38:06.470Z,41.7
2023-03-07T05:43:44.632Z,41.6
2023-03-07T05:49:38.391Z,41.6
2023-03-07T05:55:15.577Z,41.6
2023-03-07T06:01:08.806Z,41.6
2023-03-07T06:07:04.326Z,41.6
2023-03-07T06:12:57.678Z,41.5
2023-03-07T06:18:51.367Z,41.5
2023-03-07T06:24:29.141Z,41.5
2023-03-07T06:30:22.285Z,41.4
2023-03-07T06:36:16.687Z,41.4
2023-03-07T06:41:53.971Z,41.4
2023-03-07T06:47:34.148Z,41.4
2023-03-07T06:53:40.386Z,41.4
2023-03-07T06:59:34.522Z,41.4
2023-03-07T07:05:26.959Z,41.3
2023-03-07T07:11:19.548Z,41.3
2023-03-07T07:16:40.298Z,41.3
2023-03-07T07:22:17.420Z,41.3
2023-03-07T07:28:10.997Z,41.3
2023-03-07T07:34:04.286Z,41.2
2023-03-07T07:39:56.909Z,41.1
2023-03-07T07:45:49.605Z,41.1
2023-03-07T07:51:41.882Z,41.1
2023-03-07T07:57:33.712Z,41.1
2023-03-07T08:03:30.569Z,41.1
2023-03-07T08:09:23.579Z,41.1
2023-03-07T08:15:18.702Z,41
2023-03-07T08:21:12.560Z,41
2023-03-07T08:27:15.353Z,40.9
2023-03-07T08:33:09.162Z,40.9
2023-03-07T08:39:02.392Z,40.9
2023-03-07T08:44:39.620Z,40.9
2023-03-07T08:50:33.624Z,40.8
2023-03-07T08:56:27.368Z,40.8
2023-03-07T09:02:20.349Z,40.8
2023-03-07T09:08:13.723Z,40.8
2023-03-07T09:14:15.838Z,40.8
2023-03-07T09:20:10.770Z,40.7
2023-03-07T09:26:03.496Z,40.7
2023-03-07T09:31:56.070Z,41.5
2023-03-07T09:37:32.617Z,42.2
2023-03-07T09:43:28.441Z,42.3
2023-03-07T09:49:21.265Z,42.3
2023-03-07T09:55:08.704Z,43.1
2023-03-07T10:01:17.346Z,44.1
2023-03-07T10:07:13.012Z,44.2
2023-03-07T10:13:05.915Z,44.2
2023-03-07T10:18:44.707Z,44.2
2023-03-07T10:24:23.314Z,44.2
2023-03-07T10:30:15.730Z,44.2
2023-03-07T10:36:22.181Z,45.6
2023-03-07T10:42:28.619Z,46.2
2023-03-07T10:48:50.297Z,46.3
2023-03-07T10:54:31.004Z,46.3
2023-03-07T11:00:27.047Z,46.8
2023-03-07T11:06:28.697Z,48.1
2023-03-07T11:12:05.667Z,48.3
2023-03-07T11:17:52.667Z,48.3
2023-03-07T11:23:29.079Z,48.3
2023-03-07T11:29:22.485Z,48.5
2023-03-07T11:35:15.123Z,49.8
2023-03-07T11:41:06.860Z,50.1
2023-03-07T11:46:44.929Z,50.2
2023-03-07T11:52:39.327Z,50.2
2023-03-07T11:58:31.313Z,50.2
2023-03-07T12:04:23.866Z,50.1
2023-03-07T12:10:01.474Z,50.1
2023-03-07T12:15:55.275Z,50.1
2023-03-07T12:21:46.929Z,50.1
2023-03-07T12:27:26.665Z,50.1
2023-03-07T12:33:21.223Z,50
2023-03-07T12:39:14.963Z,50
2023-03-07T12:44:36.974Z,49.9
2023-03-07T12:50:23.002Z,49.9
2023-03-07T12:56:15.220Z,49.9
2023-03-07T13:01:38.075Z,49.9
2023-03-07T13:07:31.089Z,49.9
2023-03-07T13:13:25.589Z,49.8
2023-03-07T13:19:18.615Z,49.8
2023-03-07T13:25:10.957Z,49.8
2023-03-07T13:30:49.304Z,49.8
2023-03-07T13:36:42.334Z,49.7
2023-03-07T13:42:20.509Z,49.7
2023-03-07T13:48:14.805Z,49.7
2023-03-07T13:54:07.653Z,49.6
2023-03-07T14:00:03.219Z,49.6
2023-03-07T14:06:02.919Z,49.6
2023-03-07T14:12:02.079Z,49.5
2023-03-07T14:17:55.732Z,49.5
2023-03-07T14:23:48.891Z,49.4
2023-03-07T14:29:42.085Z,49.4
2023-03-07T14:35:20.527Z,49.4
2023-03-07T14:41:15.525Z,49.4
2023-03-07T14:47:08.850Z,49.3
2023-03-07T14:53:11.012Z,49.3
2023-03-07T14:59:03.755Z,49.3
2023-03-07T15:05:06.716Z,49.2
2023-03-07T15:11:00.039Z,49.2
2023-03-07T15:16:54.891Z,49.2
2023-03-07T15:22:17.374Z,49.1
2023-03-07T15:28:10.283Z,49.1
2023-03-07T15:33:47.467Z,49.1
2023-03-07T15:39:40.449Z,49.1
2023-03-07T15:45:02.881Z,49
2023-03-07T15:50:56.309Z,48.9
2023-03-07T15:56:48.468Z,48.9
2023-03-07T16:02:25.782Z,48.9
2023-03-07T16:07:48.668Z,48.9
2023-03-07T16:13:10.075Z,48.9
2023-03-07T16:19:02.658Z,48.8
2023-03-07T16:24:41.300Z,48.8
2023-03-07T16:30:34.166Z,48.8
2023-03-07T16:36:12.407Z,48.7
2023-03-07T16:41:34.254Z,48.7
2023-03-07T16:47:27.229Z,48.6
2023-03-07T16:53:28.653Z,48.6
2023-03-07T16:59:05.869Z,48.6
2023-03-07T17:04:44.600Z,48.6
2023-03-07T17:10:45.006Z,48.5
2023-03-07T17:16:37.960Z,48.5
2023-03-07T17:22:29.995Z,48.4
2023-03-07T17:28:23.743Z,48.4
2023-03-07T17:34:16.731Z,48.4
2023-03-07T17:40:10.107Z,48.4
2023-03-07T17:46:02.497Z,48.3
2023-03-07T17:51:55.744Z,48.3
2023-03-07T17:57:48.438Z,48.3
2023-03-07T18:03:44.985Z,48.3
2023-03-07T18:09:37.660Z,48.2
2023-03-07T18:15:44.099Z,48.1
2023-03-07T18:21:39.594Z,48.1
2023-03-07T18:27:04.036Z,48.1
2023-03-07T18:32:57.214Z,48
2023-03-07T18:38:51.232Z,48
2023-03-07T18:44:44.180Z,48
2023-03-07T18:50:36.927Z,47.9
2023-03-07T18:56:30.551Z,47.9
2023-03-07T19:02:08.336Z,47.9
2023-03-07T19:07:45.948Z,47.9
2023-03-07T19:13:41.601Z,47.8
2023-03-07T19:19:18.971Z,47.8
2023-03-07T19:25:11.139Z,47.8
2023-03-07T19:30:48.178Z,47.8
2023-03-07T19:36:27.382Z,47.7
2023-03-07T19:42:19.732Z,47.6
2023-03-07T19:48:12.911Z,47.6
2023-03-07T19:54:05.686Z,47.6
2023-03-07T19:59:58.127Z,47.5
2023-03-07T20:05:50.885Z,47.4
2023-03-07T20:12:00.472Z,47.4
2023-03-07T20:17:53.148Z,47.4
2023-03-07T20:23:46.602Z,47.3
2023-03-07T20:29:24.064Z,47.3
2023-03-07T20:35:17.394Z,47.3
2023-03-07T20:41:11.278Z,47.2
2023-03-07T20:47:04.981Z,47.2
2023-03-07T20:52:58.826Z,47.6
2023-03-07T20:58:51.920Z,48.6
2023-03-07T21:04:44.681Z,49.7
2023-03-07T21:10:24.030Z,50.8
2023-03-07T21:15:47.168Z,51.1
2023-03-07T21:21:24.317Z,51.2
2023-03-07T21:26:46.685Z,51.2
2023-03-07T21:32:24.084Z,51.2
2023-03-07T21:38:16.262Z,51.2
2023-03-07T21:43:37.740Z,51.1
2023-03-07T21:49:31.052Z,51.1
2023-03-07T21:55:22.918Z,51.1
2023-03-07T22:01:15.313Z,51.1
2023-03-07T22:06:52.478Z,51.1
2023-03-07T22:12:29.470Z,51
2023-03-07T22:17:51.610Z,50.9
2023-03-07T22:23:44.380Z,50.9
2023-03-07T22:29:06.801Z,50.9
2023-03-07T22:34:28.974Z,50.9
2023-03-07T22:40:06.279Z,50.9
2023-03-07T22:45:27.933Z,50.8
2023-03-07T22:50:49.207Z,50.8
2023-03-07T22:56:26.473Z,50.8
2023-03-07T23:02:19.662Z,50.8
2023-03-07T23:07:57.545Z,50.7
2023-03-07T23:13:50.375Z,50.7
2023-03-07T23:19:29.661Z,50.6
2023-03-07T23:25:09.690Z,50.6
2023-03-07T23:31:02.429Z,50.6
2023-03-07T23:36:55.840Z,50.6
2023-03-07T23:42:49.527Z,50.5
2023-03-07T23:48:30.366Z,50.5
2023-03-07T23:53:52.114Z,50.4
2023-03-07T23:59:44.725Z,50.4
